createdAt,value
2019-03-17T00:00:27.812Z,5.8
2019-03-17T00:01:17.228Z,5.8
2019-03-17T00:02:07.829Z,5.7
2019-03-17T00:02:57.332Z,5.6
2019-03-17T00:03:47.714Z,5.5
2019-03-17T00:04:37.707Z,5.4
2019-03-17T00:05:27.818Z,5.4
2019-03-17T00:06:17.860Z,5.5
2019-03-17T00:07:07.935Z,5.6
2019-03-17T00:07:58.242Z,5.6
2019-03-17T00:08:48.012Z,5.6
2019-03-17T00:09:37.563Z,5.6
2019-03-17T00:10:28.422Z,5.6
2019-03-17T00:11:18.217Z,5.6
2019-03-17T00:12:08.269Z,5.5
2019-03-17T00:12:58.603Z,5.5
2019-03-17T00:13:48.667Z,5.4
2019-03-17T00:14:38.460Z,5.4
2019-03-17T00:15:28.784Z,5.4
2019-03-17T00:16:18.578Z,5.4
2019-03-17T00:17:08.624Z,5.4
2019-03-17T00:17:59.047Z,5.4
2019-03-17T00:18:48.184Z,5.4
2019-03-17T00:19:39.086Z,5.4
2019-03-17T00:20:29.133Z,5.4
2019-03-17T00:21:18.637Z,5.4
2019-03-17T00:22:09.129Z,5.5
2019-03-17T00:22:59.091Z,5.5
2019-03-17T00:23:49.383Z,5.5
2019-03-17T00:24:39.155Z,5.5
2019-03-17T00:25:29.209Z,5.4
2019-03-17T00:26:19.562Z,5.4
2019-03-17T00:27:09.659Z,5.4
2019-03-17T00:27:59.391Z,5.4
2019-03-17T00:28:49.454Z,5.4
2019-03-17T00:29:39.239Z,5.4
2019-03-17T00:30:29.839Z,5.4
2019-03-17T00:31:26.636Z,5.4
2019-03-17T00:32:09.450Z,5.5
2019-03-17T00:32:59.741Z,5.6
2019-03-17T00:33:49.548Z,5.6
2019-03-17T00:34:47.170Z,5.7
2019-03-17T00:35:29.940Z,5.8
2019-03-17T00:36:20.001Z,5.8
2019-03-17T00:37:10.323Z,5.8
2019-03-17T00:38:00.130Z,5.8
2019-03-17T00:38:49.891Z,5.8
2019-03-17T00:39:40.228Z,5.8
2019-03-17T00:40:30.308Z,5.9
2019-03-17T00:41:20.338Z,6
2019-03-17T00:42:10.486Z,6
2019-03-17T00:43:00.470Z,6
2019-03-17T00:43:50.830Z,6.1
2019-03-17T00:44:40.852Z,6.1
2019-03-17T00:45:30.388Z,6
2019-03-17T00:46:20.699Z,6
2019-03-17T00:47:13.516Z,6
2019-03-17T00:48:00.830Z,6
2019-03-17T00:48:50.862Z,6
2019-03-17T00:49:41.302Z,6.1
2019-03-17T00:50:31.277Z,6.1
2019-03-17T00:51:21.064Z,6.1
2019-03-17T00:52:11.220Z,6.2
2019-03-17T00:53:00.960Z,6.2
2019-03-17T00:53:51.242Z,6.2
2019-03-17T00:54:41.042Z,6.3
2019-03-17T00:55:31.360Z,6.2
2019-03-17T00:56:21.142Z,6.1
2019-03-17T00:57:11.194Z,6
2019-03-17T00:58:02.780Z,6
2019-03-17T00:58:51.594Z,5.9
2019-03-17T00:59:41.667Z,5.8
2019-03-17T01:00:31.447Z,5.8
2019-03-17T01:01:21.504Z,5.8
2019-03-17T01:02:11.902Z,5.9
2019-03-17T01:03:01.908Z,5.9
2019-03-17T01:03:51.964Z,5.9
2019-03-17T01:04:41.741Z,6
2019-03-17T01:05:33.796Z,6.1
2019-03-17T01:06:22.413Z,6.2
2019-03-17T01:07:12.548Z,6.3
2019-03-17T01:08:02.276Z,6.4
2019-03-17T01:08:51.764Z,6.4
2019-03-17T01:09:42.666Z,6.4
2019-03-17T01:10:32.449Z,6.5
2019-03-17T01:11:22.241Z,6.6
2019-03-17T01:12:12.841Z,6.6
2019-03-17T01:13:02.073Z,6.6
2019-03-17T01:13:52.117Z,6.7
2019-03-17T01:14:43.016Z,6.7
2019-03-17T01:15:33.059Z,6.7
2019-03-17T01:16:22.868Z,6.8
2019-03-17T01:17:12.943Z,6.8
2019-03-17T01:18:03.033Z,6.8
2019-03-17T01:18:53.085Z,6.8
2019-03-17T01:19:43.358Z,6.7
2019-03-17T01:20:32.876Z,6.6
2019-03-17T01:21:23.488Z,6.6
2019-03-17T01:22:13.528Z,6.6
2019-03-17T01:23:03.038Z,6.6
2019-03-17T01:23:53.388Z,6.6
2019-03-17T01:24:43.730Z,6.6
2019-03-17T01:25:33.782Z,6.8
2019-03-17T01:26:23.553Z,6.8
2019-03-17T01:27:13.895Z,6.8
2019-03-17T01:28:03.730Z,6.8
2019-03-17T01:28:53.747Z,6.8
2019-03-17T01:29:43.510Z,6.8
2019-03-17T01:30:34.140Z,6.8
2019-03-17T01:31:23.940Z,6.8
2019-03-17T01:32:13.990Z,6.7
2019-03-17T01:33:04.059Z,6.7
2019-03-17T01:33:53.830Z,6.6
2019-03-17T01:34:44.437Z,6.6
2019-03-17T01:35:34.897Z,6.6
2019-03-17T01:36:23.725Z,6.5
2019-03-17T01:37:14.047Z,6.5
2019-03-17T01:38:04.669Z,6.6
2019-03-17T01:38:54.729Z,6.6
2019-03-17T01:39:44.517Z,6.6
2019-03-17T01:40:34.877Z,6.7
2019-03-17T01:41:24.127Z,6.8
2019-03-17T01:42:14.404Z,6.8
2019-03-17T01:43:04.772Z,6.8
2019-03-17T01:43:54.599Z,6.8
2019-03-17T01:44:44.881Z,6.9
2019-03-17T01:45:34.927Z,7
2019-03-17T01:46:25.044Z,6.9
2019-03-17T01:47:15.327Z,7.1
2019-03-17T01:48:05.109Z,7.3
2019-03-17T01:48:55.454Z,7.4
2019-03-17T01:49:44.949Z,7.5
2019-03-17T01:50:35.575Z,7.5
2019-03-17T01:51:25.631Z,7.4
2019-03-17T01:52:15.424Z,7.4
2019-03-17T01:53:05.751Z,7.4
2019-03-17T01:53:55.251Z,7.4
2019-03-17T01:54:45.882Z,7.5
2019-03-17T01:55:35.923Z,7.5
2019-03-17T01:56:25.148Z,7.5
2019-03-17T01:57:15.776Z,7.6
2019-03-17T01:58:05.824Z,7.5
2019-03-17T01:58:55.889Z,7.6
2019-03-17T01:59:45.730Z,7.6
2019-03-17T02:00:35.515Z,7.7
2019-03-17T02:01:26.128Z,7.6
2019-03-17T02:02:16.402Z,7.5
2019-03-17T02:03:06.511Z,7.6
2019-03-17T02:03:56.243Z,7.6
2019-03-17T02:04:46.026Z,7.6
2019-03-17T02:05:36.636Z,7.6
2019-03-17T02:06:26.188Z,7.6
2019-03-17T02:07:16.468Z,7.5
2019-03-17T02:08:06.256Z,7.6
2019-03-17T02:08:56.051Z,7.5
2019-03-17T02:09:46.733Z,7.5
2019-03-17T02:10:36.495Z,7.6
2019-03-17T02:11:26.507Z,7.5
2019-03-17T02:12:17.116Z,7.5
2019-03-17T02:13:07.160Z,7.4
2019-03-17T02:13:56.681Z,7.5
2019-03-17T02:14:46.503Z,7.5
2019-03-17T02:15:36.790Z,7.4
2019-03-17T02:16:27.407Z,7.4
2019-03-17T02:17:17.475Z,7.4
2019-03-17T02:18:07.540Z,7.3
2019-03-17T02:18:57.307Z,7.4
2019-03-17T02:19:47.109Z,7.3
2019-03-17T02:20:37.715Z,7.1
2019-03-17T02:21:27.760Z,7.1
2019-03-17T02:22:17.007Z,7.1
2019-03-17T02:23:06.842Z,7.2
2019-03-17T02:23:57.672Z,7.3
2019-03-17T02:24:48.022Z,7.1
2019-03-17T02:25:37.782Z,7
2019-03-17T02:26:27.847Z,6.9
2019-03-17T02:27:18.228Z,6.9
2019-03-17T02:28:08.307Z,6.8
2019-03-17T02:28:57.746Z,6.8
2019-03-17T02:29:48.369Z,6.8
2019-03-17T02:30:37.943Z,6.8
2019-03-17T02:31:28.261Z,6.7
2019-03-17T02:32:18.053Z,6.7
2019-03-17T02:33:08.092Z,6.6
2019-03-17T02:33:58.436Z,6.6
2019-03-17T02:34:48.483Z,6.4
2019-03-17T02:35:42.667Z,6.4
2019-03-17T02:36:28.224Z,6.4
2019-03-17T02:37:18.722Z,6.3
2019-03-17T02:38:08.707Z,6.2
2019-03-17T02:38:58.484Z,6.2
2019-03-17T02:39:48.588Z,6.1
2019-03-17T02:40:38.928Z,6.1
2019-03-17T02:41:28.670Z,6.1
2019-03-17T02:42:19.064Z,6
2019-03-17T02:43:09.077Z,5.9
2019-03-17T02:43:59.537Z,5.9
2019-03-17T02:44:49.208Z,5.8
2019-03-17T02:45:39.266Z,5.7
2019-03-17T02:46:29.291Z,5.6
2019-03-17T02:47:19.651Z,5.6
2019-03-17T02:48:09.147Z,5.5
2019-03-17T02:48:59.766Z,5.4
2019-03-17T02:49:49.547Z,5.3
2019-03-17T02:50:39.881Z,5.3
2019-03-17T02:51:29.653Z,5.1
2019-03-17T02:52:19.481Z,5
2019-03-17T02:53:09.491Z,4.9
2019-03-17T02:53:59.855Z,4.9
2019-03-17T02:54:50.183Z,4.8
2019-03-17T02:55:39.709Z,4.8
2019-03-17T02:56:30.026Z,4.8
2019-03-17T02:57:20.349Z,4.8
2019-03-17T02:58:10.446Z,4.7
2019-03-17T02:59:00.476Z,4.7
2019-03-17T02:59:50.236Z,4.6
2019-03-17T03:00:40.620Z,4.6
2019-03-17T03:01:30.660Z,4.6
2019-03-17T03:02:20.746Z,4.6
2019-03-17T03:03:10.813Z,4.6
2019-03-17T03:04:00.581Z,4.6
2019-03-17T03:07:32.206Z,4.4
2019-03-17T03:08:22.230Z,4.4
2019-03-17T03:09:12.003Z,4.4
2019-03-17T03:10:02.625Z,4.5
2019-03-17T03:10:52.248Z,4.6
2019-03-17T03:11:42.180Z,4.8
2019-03-17T03:12:32.526Z,4.9
2019-03-17T03:13:22.029Z,5.1
2019-03-17T03:14:12.635Z,5.1
2019-03-17T03:15:02.772Z,5.1
2019-03-17T03:15:52.524Z,5.2
2019-03-17T03:16:42.802Z,5.2
2019-03-17T03:17:32.602Z,5.2
2019-03-17T03:18:22.658Z,5.3
2019-03-17T03:19:12.982Z,5.3
2019-03-17T03:20:03.389Z,5.3
2019-03-17T03:20:53.092Z,5.4
2019-03-17T03:21:43.138Z,5.5
2019-03-17T03:22:33.339Z,5.6
2019-03-17T03:23:23.255Z,5.6
2019-03-17T03:24:13.349Z,5.7
2019-03-17T03:25:03.651Z,5.7
2019-03-17T03:25:53.193Z,5.8
2019-03-17T03:26:43.239Z,5.8
2019-03-17T03:27:33.382Z,5.8
2019-03-17T03:28:23.650Z,5.8
2019-03-17T03:29:13.711Z,5.8
2019-03-17T03:30:03.530Z,5.8
2019-03-17T03:30:53.646Z,5.8
2019-03-17T03:31:43.691Z,5.8
2019-03-17T03:32:33.994Z,5.8
2019-03-17T03:33:24.247Z,5.8
2019-03-17T03:34:14.080Z,5.9
2019-03-17T03:35:04.249Z,5.9
2019-03-17T03:36:11.819Z,5.9
2019-03-17T03:36:43.643Z,5.9
2019-03-17T03:37:34.323Z,6
2019-03-17T03:38:24.093Z,6.1
2019-03-17T03:39:14.450Z,6.1
2019-03-17T03:40:04.238Z,6.1
2019-03-17T03:40:54.304Z,6.3
2019-03-17T03:41:44.571Z,6.3
2019-03-17T03:42:34.358Z,6.4
2019-03-17T03:43:24.706Z,6.5
2019-03-17T03:44:14.779Z,6.6
2019-03-17T03:45:04.813Z,6.6
2019-03-17T03:45:54.030Z,6.7
2019-03-17T03:46:44.960Z,6.7
2019-03-17T03:47:35.049Z,6.6
2019-03-17T03:48:24.773Z,6.6
2019-03-17T03:49:15.155Z,6.6
2019-03-17T03:50:05.175Z,6.6
2019-03-17T03:50:54.991Z,6.6
2019-03-17T03:51:44.546Z,6.5
2019-03-17T03:52:35.078Z,6.4
2019-03-17T03:53:25.390Z,6.4
2019-03-17T03:54:15.463Z,6.4
2019-03-17T03:55:05.520Z,6.5
2019-03-17T03:55:55.035Z,6.6
2019-03-17T03:56:45.385Z,6.7
2019-03-17T03:57:35.413Z,6.6
2019-03-17T03:58:25.778Z,6.5
2019-03-17T03:59:15.275Z,6.5
2019-03-17T04:00:05.602Z,6.5
2019-03-17T04:00:55.679Z,6.5
2019-03-17T04:01:45.738Z,6.6
2019-03-17T04:02:36.152Z,6.7
2019-03-17T04:03:26.150Z,6.6
2019-03-17T04:04:15.917Z,6.7
2019-03-17T04:05:06.233Z,6.7
2019-03-17T04:05:56.285Z,6.8
2019-03-17T04:06:46.110Z,6.8
2019-03-17T04:07:36.545Z,6.9
2019-03-17T04:08:26.235Z,6.9
2019-03-17T04:09:16.521Z,6.9
2019-03-17T04:10:06.321Z,7
2019-03-17T04:10:56.369Z,7
2019-03-17T04:11:46.694Z,7
2019-03-17T04:12:36.466Z,7
2019-03-17T04:13:26.253Z,7
2019-03-17T04:14:16.657Z,6.9
2019-03-17T04:15:06.655Z,6.9
2019-03-17T04:15:56.982Z,6.8
2019-03-17T04:16:46.582Z,6.4
2019-03-17T04:17:37.092Z,6.2
2019-03-17T04:18:27.161Z,5.9
2019-03-17T04:19:16.978Z,5.8
2019-03-17T04:20:07.045Z,5.6
2019-03-17T04:20:57.404Z,5.5
2019-03-17T04:21:46.585Z,5.4
2019-03-17T04:22:37.213Z,5.2
2019-03-17T04:23:27.246Z,5
2019-03-17T04:24:17.632Z,4.9
2019-03-17T04:25:07.985Z,4.9
2019-03-17T04:25:57.698Z,4.8
2019-03-17T04:26:47.483Z,4.8
2019-03-17T04:27:37.287Z,4.9
2019-03-17T04:28:27.927Z,4.9
2019-03-17T04:29:17.929Z,4.9
2019-03-17T04:30:07.810Z,4.8
2019-03-17T04:30:58.043Z,4.8
2019-03-17T04:31:47.556Z,4.8
2019-03-17T04:32:38.153Z,4.7
2019-03-17T04:33:27.941Z,4.7
2019-03-17T04:34:18.016Z,4.7
2019-03-17T04:35:08.435Z,4.6
2019-03-17T04:35:58.394Z,4.7
2019-03-17T04:36:48.175Z,4.7
2019-03-17T04:37:38.325Z,4.6
2019-03-17T04:38:28.575Z,4.6
2019-03-17T04:39:18.087Z,4.6
2019-03-17T04:40:08.546Z,4.6
2019-03-17T04:40:58.467Z,4.7
2019-03-17T04:41:48.512Z,4.8
2019-03-17T04:42:38.567Z,4.7
2019-03-17T04:43:28.634Z,4.8
2019-03-17T04:44:23.990Z,4.8
2019-03-17T04:45:08.797Z,4.8
2019-03-17T04:45:59.147Z,4.8
2019-03-17T04:46:48.594Z,4.8
2019-03-17T04:47:39.215Z,4.8
2019-03-17T04:48:28.699Z,4.8
2019-03-17T04:49:19.345Z,4.8
2019-03-17T04:50:09.132Z,4.8
2019-03-17T04:50:59.445Z,4.8
2019-03-17T04:51:49.543Z,4.8
2019-03-17T04:52:39.562Z,4.8
2019-03-17T04:53:29.086Z,4.7
2019-03-17T04:54:19.674Z,4.6
2019-03-17T04:55:09.197Z,4.6
2019-03-17T04:55:59.541Z,4.6
2019-03-17T04:56:49.879Z,4.6
2019-03-17T04:57:39.719Z,4.6
2019-03-17T04:58:29.991Z,4.7
2019-03-17T04:59:20.038Z,4.8
2019-03-17T05:00:09.836Z,4.8
2019-03-17T05:00:59.891Z,4.8
2019-03-17T05:01:50.231Z,4.8
2019-03-17T05:02:40.281Z,4.8
2019-03-17T05:03:30.346Z,4.9
2019-03-17T05:04:19.921Z,4.9
2019-03-17T05:05:10.480Z,5
2019-03-17T05:06:00.518Z,5.1
2019-03-17T05:06:55.181Z,5.1
2019-03-17T05:07:40.113Z,5.2
2019-03-17T05:08:30.675Z,5.2
2019-03-17T05:09:20.741Z,5.2
2019-03-17T05:10:10.835Z,5.2
2019-03-17T05:11:00.313Z,5.3
2019-03-17T05:11:50.932Z,5.4
2019-03-17T05:12:40.715Z,5.4
2019-03-17T05:13:30.503Z,5.4
2019-03-17T05:14:21.095Z,5.4
2019-03-17T05:15:10.941Z,5.4
2019-03-17T05:16:00.933Z,5.4
2019-03-17T05:16:50.715Z,5.5
2019-03-17T05:17:41.330Z,5.6
2019-03-17T05:18:31.118Z,5.6
2019-03-17T05:19:21.170Z,5.7
2019-03-17T05:20:11.511Z,5.8
2019-03-17T05:21:01.365Z,5.9
2019-03-17T05:21:51.345Z,5.9
2019-03-17T05:22:41.420Z,6
2019-03-17T05:23:31.753Z,6.1
2019-03-17T05:24:21.572Z,6.1
2019-03-17T05:25:11.645Z,6.1
2019-03-17T05:26:01.935Z,6.2
2019-03-17T05:26:51.984Z,6.3
2019-03-17T05:27:41.822Z,6.3
2019-03-17T05:28:32.126Z,6.3
2019-03-17T05:29:22.187Z,6.4
2019-03-17T05:30:12.229Z,6.4
2019-03-17T05:31:01.722Z,6.4
2019-03-17T05:31:52.075Z,6.5
2019-03-17T05:32:42.123Z,6.6
2019-03-17T05:33:32.457Z,6.7
2019-03-17T05:34:22.533Z,6.8
2019-03-17T05:35:12.309Z,6.8
2019-03-17T05:36:02.375Z,6.8
2019-03-17T05:37:07.489Z,6.8
2019-03-17T05:37:42.507Z,6.9
2019-03-17T05:38:32.843Z,6.9
2019-03-17T05:39:22.633Z,6.9
2019-03-17T05:40:12.700Z,6.9
2019-03-17T05:41:02.981Z,7.1
2019-03-17T05:41:52.756Z,7.1
2019-03-17T05:42:43.791Z,7.1
2019-03-17T05:43:33.169Z,7.2
2019-03-17T05:44:23.242Z,7.3
2019-03-17T05:45:13.291Z,7.4
2019-03-17T05:46:03.106Z,7.5
2019-03-17T05:46:53.121Z,7.6
2019-03-17T05:47:43.204Z,7.6
2019-03-17T05:48:33.246Z,7.8
2019-03-17T05:49:23.309Z,7.9
2019-03-17T05:50:13.644Z,7.9
2019-03-17T05:51:03.408Z,8.1
2019-03-17T05:51:53.756Z,8.1
2019-03-17T05:52:43.538Z,8.1
2019-03-17T05:53:33.876Z,8.1
2019-03-17T05:54:23.989Z,8.1
2019-03-17T05:55:13.999Z,8
2019-03-17T05:56:04.063Z,8.1
2019-03-17T05:56:53.647Z,8.1
2019-03-17T05:57:43.950Z,8.4
2019-03-17T05:58:34.291Z,8.6
2019-03-17T05:59:24.312Z,8.6
2019-03-17T06:00:14.385Z,8.7
2019-03-17T06:01:03.870Z,8.7
2019-03-17T06:01:54.197Z,8.9
2019-03-17T06:02:44.509Z,9
2019-03-17T06:03:33.760Z,9.2
2019-03-17T06:05:31.513Z,9.3
2019-03-17T06:06:21.772Z,9.3
2019-03-17T06:07:21.385Z,9.1
2019-03-17T06:08:02.168Z,9.1
2019-03-17T06:08:52.217Z,9.1
2019-03-17T06:09:41.993Z,9.2
2019-03-17T06:10:32.320Z,9.4
2019-03-17T06:11:22.108Z,9.4
2019-03-17T06:12:11.875Z,9.4
2019-03-17T06:13:02.523Z,9.4
2019-03-17T06:13:54.325Z,9.8
2019-03-17T06:14:42.651Z,9.8
2019-03-17T06:15:32.399Z,9.7
2019-03-17T06:16:22.192Z,9.7
2019-03-17T06:17:12.529Z,9.7
2019-03-17T06:18:02.918Z,9.8
2019-03-17T06:18:52.371Z,9.8
2019-03-17T06:19:42.981Z,9.9
2019-03-17T06:20:32.750Z,9.9
2019-03-17T06:21:23.129Z,10.1
2019-03-17T06:22:12.600Z,10.1
2019-03-17T06:23:03.319Z,10.1
2019-03-17T06:23:52.986Z,10.3
2019-03-17T06:24:42.494Z,10.5
2019-03-17T06:25:33.496Z,10.5
2019-03-17T06:26:23.454Z,10.4
2019-03-17T06:27:13.266Z,10.4
2019-03-17T06:28:03.285Z,10.3
2019-03-17T06:28:53.433Z,10.2
2019-03-17T06:29:43.393Z,10.4
2019-03-17T06:30:33.187Z,10.5
2019-03-17T06:31:23.802Z,10.5
2019-03-17T06:32:13.579Z,10.3
2019-03-17T06:33:03.915Z,10.3
2019-03-17T06:33:53.964Z,10.4
2019-03-17T06:34:43.757Z,10.7
2019-03-17T06:35:33.817Z,10.7
2019-03-17T06:36:24.158Z,10.9
2019-03-17T06:37:13.656Z,10.9
2019-03-17T06:38:03.733Z,11
2019-03-17T06:38:54.316Z,11
2019-03-17T06:39:44.391Z,11.1
2019-03-17T06:40:34.179Z,11.3
2019-03-17T06:41:24.233Z,11.3
2019-03-17T06:42:14.570Z,11.2
2019-03-17T06:43:04.650Z,11.2
2019-03-17T06:43:54.680Z,11.3
2019-03-17T06:44:44.200Z,11.4
2019-03-17T06:45:34.523Z,11.4
2019-03-17T06:46:24.582Z,11.6
2019-03-17T06:47:14.639Z,11.5
2019-03-17T06:48:04.991Z,11.4
2019-03-17T06:48:55.057Z,11.4
2019-03-17T06:49:45.107Z,11.5
2019-03-17T06:50:34.594Z,11.8
2019-03-17T06:51:24.977Z,11.9
2019-03-17T06:52:14.995Z,11.9
2019-03-17T06:53:05.060Z,12
2019-03-17T06:53:59.650Z,12
2019-03-17T06:54:45.194Z,11.9
2019-03-17T06:55:35.510Z,11.8
2019-03-17T06:56:25.010Z,11.8
2019-03-17T06:57:15.087Z,12
2019-03-17T06:58:04.872Z,11.8
2019-03-17T06:58:55.756Z,11.6
2019-03-17T06:59:45.542Z,11.6
2019-03-17T07:00:35.869Z,11.7
2019-03-17T07:01:25.945Z,11.9
2019-03-17T07:02:15.989Z,11.6
2019-03-17T07:03:06.049Z,11.6
2019-03-17T07:05:31.651Z,12.3
2019-03-17T07:06:21.982Z,12.3
2019-03-17T07:07:11.760Z,12.3
2019-03-17T07:08:02.329Z,12.2
2019-03-17T07:08:52.151Z,12.6
2019-03-17T07:09:41.926Z,12.9
2019-03-17T07:10:31.716Z,12.9
2019-03-17T07:11:22.126Z,12.9
2019-03-17T07:12:11.642Z,12.6
2019-03-17T07:13:02.464Z,12.6
2019-03-17T07:13:52.511Z,13
2019-03-17T07:14:42.586Z,13
2019-03-17T07:15:32.649Z,12.6
2019-03-17T07:16:22.461Z,12.8
2019-03-17T07:17:11.914Z,12.9
2019-03-17T07:18:02.331Z,13.1
2019-03-17T07:18:52.584Z,13.3
2019-03-17T07:19:42.685Z,13.1
2019-03-17T07:20:32.731Z,13.1
2019-03-17T07:21:23.038Z,13.1
2019-03-17T07:22:13.113Z,13.3
2019-03-17T07:23:02.893Z,13.7
2019-03-17T07:23:53.238Z,13.9
2019-03-17T07:24:42.736Z,14
2019-03-17T07:25:32.515Z,14.4
2019-03-17T07:26:23.420Z,14.4
2019-03-17T07:27:12.749Z,14.3
2019-03-17T07:28:03.526Z,14.4
2019-03-17T07:28:53.525Z,14.4
2019-03-17T07:29:43.415Z,14.3
2019-03-17T07:30:33.421Z,14.5
2019-03-17T07:31:23.503Z,14.6
2019-03-17T07:32:13.823Z,14.7
2019-03-17T07:33:03.610Z,14.8
2019-03-17T07:33:53.960Z,15
2019-03-17T07:34:44.018Z,15.1
2019-03-17T07:35:34.070Z,15.2
2019-03-17T07:36:24.125Z,15.1
2019-03-17T07:37:14.187Z,15.1
2019-03-17T07:38:04.235Z,15.3
2019-03-17T07:38:53.755Z,15.2
2019-03-17T07:39:44.080Z,15.2
2019-03-17T07:40:34.152Z,15.4
2019-03-17T07:41:24.666Z,15.9
2019-03-17T07:42:14.267Z,16.4
2019-03-17T07:43:04.335Z,16.4
2019-03-17T07:43:54.404Z,16.1
2019-03-17T07:44:44.707Z,16.3
2019-03-17T07:45:34.514Z,16.5
2019-03-17T07:46:39.710Z,16.7
2019-03-17T07:47:14.974Z,16.8
2019-03-17T07:48:04.955Z,16.7
2019-03-17T07:48:55.087Z,17.1
2019-03-17T07:49:45.072Z,17.3
2019-03-17T07:51:25.211Z,17.1
2019-03-17T07:52:15.265Z,17.4
2019-03-17T07:53:04.757Z,17.6
2019-03-17T07:53:55.100Z,17.8
2019-03-17T07:54:45.164Z,17.6
2019-03-17T07:55:35.009Z,17.9
2019-03-17T07:56:25.559Z,17.9
2019-03-17T07:57:14.797Z,17.9
2019-03-17T07:58:05.667Z,17.9
2019-03-17T07:58:55.517Z,17.8
2019-03-17T07:59:45.521Z,17.8
2019-03-17T08:00:35.844Z,17.8
2019-03-17T08:01:25.909Z,17.9
2019-03-17T08:02:14.945Z,17.7
2019-03-17T08:03:06.133Z,17.8
2019-03-17T08:03:56.086Z,18
2019-03-17T08:04:49.228Z,18.2
2019-03-17T08:05:35.938Z,18.4
2019-03-17T08:06:26.309Z,18.4
2019-03-17T08:07:15.768Z,18.1
2019-03-17T08:08:12.277Z,18.2
2019-03-17T08:08:56.459Z,18.5
2019-03-17T08:09:46.549Z,18.8
2019-03-17T08:10:36.305Z,19.1
2019-03-17T08:11:26.626Z,18.8
2019-03-17T08:12:16.123Z,18.8
2019-03-17T08:13:06.472Z,18.9
2019-03-17T08:13:56.523Z,19
2019-03-17T08:14:46.583Z,19
2019-03-17T08:15:36.480Z,18.8
2019-03-17T08:16:26.702Z,18.8
2019-03-17T08:17:17.037Z,18.4
2019-03-17T08:18:06.550Z,18.2
2019-03-17T08:18:56.863Z,18.3
2019-03-17T08:19:46.935Z,18.5
2019-03-17T08:20:36.993Z,18.8
2019-03-17T08:21:27.327Z,19.2
2019-03-17T08:22:17.417Z,19.4
2019-03-17T08:23:07.477Z,19.5
2019-03-17T10:06:30.762Z,21.2
2019-03-17T10:07:21.114Z,21
2019-03-17T10:08:11.902Z,20.9
2019-03-17T10:09:03.161Z,20.7
2019-03-17T10:09:52.011Z,20.8
2019-03-17T10:10:41.534Z,20.8
2019-03-17T10:11:31.388Z,20.6
2019-03-17T10:12:21.650Z,20.8
2019-03-17T10:13:12.269Z,20.8
2019-03-17T10:14:02.306Z,20.7
2019-03-17T10:14:52.372Z,20.8
2019-03-17T10:15:42.149Z,20.9
2019-03-17T10:16:32.506Z,20.9
2019-03-17T10:17:22.113Z,21
2019-03-17T10:18:12.666Z,21.3
2019-03-17T10:19:02.671Z,21.1
2019-03-17T10:19:51.970Z,20.9
2019-03-17T10:21:32.938Z,20.9
2019-03-17T10:22:22.915Z,20.6
2019-03-17T10:23:12.413Z,21.3
2019-03-17T10:24:02.776Z,21.9
2019-03-17T10:24:53.071Z,21.9
2019-03-17T10:25:43.205Z,22.3
2019-03-17T10:26:32.925Z,22.3
2019-03-17T10:27:23.263Z,21.6
2019-03-17T10:28:13.363Z,21.8
2019-03-17T10:29:03.120Z,21.7
2019-03-17T10:29:53.428Z,22.2
2019-03-17T10:30:43.504Z,22.4
2019-03-17T10:31:33.567Z,22.3
2019-03-17T10:32:23.623Z,22.4
2019-03-17T10:33:13.676Z,21.6
2019-03-17T10:34:03.511Z,21.3
2019-03-17T10:34:53.402Z,21.3
2019-03-17T10:35:43.870Z,21.2
2019-03-17T10:36:33.932Z,21.3
2019-03-17T10:37:23.738Z,21.2
2019-03-17T10:38:14.042Z,20.9
2019-03-17T10:39:15.126Z,20.8
2019-03-17T10:39:54.152Z,21.1
2019-03-17T10:42:24.072Z,21.3
2019-03-17T10:43:14.422Z,21.8
2019-03-17T10:44:04.477Z,21.5
2019-03-17T10:44:53.691Z,21.2
2019-03-17T10:45:44.297Z,21.3
2019-03-17T10:46:34.367Z,21.2
2019-03-17T10:47:24.429Z,21
2019-03-17T10:48:14.479Z,21.3
2019-03-17T10:49:04.536Z,21.4
2019-03-17T10:49:54.882Z,21.6
2019-03-17T10:50:52.736Z,21.8
2019-03-17T10:51:35.004Z,21.4
2019-03-17T10:52:24.772Z,21.5
2019-03-17T10:53:15.119Z,21.5
2019-03-17T10:54:04.901Z,21.4
2019-03-17T10:54:54.979Z,21.1
2019-03-17T10:55:45.024Z,21.3
2019-03-17T10:56:34.806Z,21.5
2019-03-17T10:57:25.141Z,21.8
2019-03-17T10:58:15.505Z,21.6
2019-03-17T10:59:05.556Z,21.6
2019-03-17T10:59:54.572Z,22.1
2019-03-17T11:00:44.834Z,22.6
2019-03-17T11:01:35.727Z,22.9
2019-03-17T11:02:25.779Z,23.3
2019-03-17T11:03:15.281Z,23.6
2019-03-17T11:04:05.658Z,23.6
2019-03-17T11:04:54.921Z,23.4
2019-03-17T11:05:45.474Z,23.2
2019-03-17T11:06:35.536Z,22.9
2019-03-17T11:07:25.864Z,22.7
2019-03-17T11:08:15.933Z,22.7
2019-03-17T11:09:05.990Z,22.4
2019-03-17T11:09:56.063Z,22.2
2019-03-17T11:10:46.126Z,21.8
2019-03-17T11:11:36.436Z,21.6
2019-03-17T11:12:26.505Z,21.6
2019-03-17T11:13:16.553Z,21.6
2019-03-17T11:14:06.685Z,21.2
2019-03-17T11:14:56.395Z,21.3
2019-03-17T11:15:46.722Z,21.4
2019-03-17T11:16:36.522Z,21.2
2019-03-17T11:17:26.843Z,21.8
2019-03-17T11:18:16.810Z,22.1
2019-03-17T11:19:06.970Z,22.1
2019-03-17T11:19:56.757Z,22.1
2019-03-17T11:20:46.535Z,22.1
2019-03-17T11:21:36.598Z,22.1
2019-03-17T11:22:26.653Z,21.8
2019-03-17T11:23:17.277Z,21.4
2019-03-17T11:24:07.090Z,21
2019-03-17T11:24:57.508Z,21.4
2019-03-17T11:25:47.453Z,21.6
2019-03-17T11:26:36.682Z,21.9
2019-03-17T11:27:27.587Z,22.3
2019-03-17T11:28:17.722Z,21.8
2019-03-17T11:29:07.505Z,21.6
2019-03-17T11:29:57.479Z,21.6
2019-03-17T11:30:47.542Z,21.6
2019-03-17T11:31:37.598Z,21.7
2019-03-17T11:32:28.020Z,22
2019-03-17T11:33:17.422Z,22.2
2019-03-17T11:34:07.548Z,22.6
2019-03-17T11:34:57.557Z,22.9
2019-03-17T11:35:48.157Z,22.7
2019-03-17T11:36:38.245Z,22.7
2019-03-17T11:37:28.297Z,22.8
2019-03-17T11:38:18.352Z,22.4
2019-03-17T11:39:08.414Z,22.6
2019-03-17T11:39:58.209Z,22.6
2019-03-17T11:40:48.269Z,22.8
2019-03-17T11:41:38.318Z,22.9
2019-03-17T11:42:28.656Z,22.8
2019-03-17T11:43:18.466Z,23.1
2019-03-17T11:44:08.599Z,23.2
2019-03-17T11:44:58.556Z,23.1
2019-03-17T11:45:48.934Z,23.4
2019-03-17T11:46:38.122Z,23.8
2019-03-17T11:47:27.974Z,24.1
2019-03-17T11:48:19.071Z,24.1
2019-03-17T11:49:08.581Z,24.1
2019-03-17T11:49:58.656Z,24.1
2019-03-17T11:50:48.701Z,24.4
2019-03-17T11:51:39.380Z,24.7
2019-03-17T11:52:29.367Z,24.6
2019-03-17T11:53:18.894Z,24.1
2019-03-17T11:54:09.496Z,23.9
2019-03-17T11:54:59.624Z,24.7
2019-03-17T11:55:49.667Z,24.8
2019-03-17T11:56:39.123Z,24.3
2019-03-17T11:57:29.458Z,24.2
2019-03-17T11:58:19.785Z,24.1
2019-03-17T11:59:09.856Z,24
2019-03-17T11:59:59.948Z,24.1
2019-03-17T12:00:49.173Z,24.1
2019-03-17T12:01:39.203Z,23.7
2019-03-17T12:02:29.928Z,23.7
2019-03-17T12:03:19.872Z,23.9
2019-03-17T12:04:10.216Z,24.1
2019-03-17T12:06:31.433Z,24.9
2019-03-17T12:07:21.484Z,24.7
2019-03-17T12:08:11.893Z,24.4
2019-03-17T12:09:04.669Z,24.6
2019-03-17T12:09:53.471Z,24.9
2019-03-17T12:10:41.992Z,24.6
2019-03-17T12:11:32.053Z,24.8
2019-03-17T12:12:22.053Z,25
2019-03-17T12:13:11.879Z,24.7
2019-03-17T12:14:01.941Z,24.8
2019-03-17T12:14:52.006Z,25
2019-03-17T12:15:42.086Z,24.9
2019-03-17T12:16:31.831Z,25.2
2019-03-17T12:17:22.403Z,25.1
2019-03-17T12:18:12.813Z,25.5
2019-03-17T12:19:02.591Z,24.4
2019-03-17T12:19:52.721Z,23.6
2019-03-17T12:20:42.425Z,23.7
2019-03-17T12:21:32.230Z,24.3
2019-03-17T12:22:22.254Z,24.4
2019-03-17T12:23:12.045Z,24.3
2019-03-17T12:24:02.962Z,23.9
2019-03-17T12:24:53.001Z,23.8
2019-03-17T12:25:43.047Z,23.3
2019-03-17T12:26:33.061Z,23.4
2019-03-17T12:27:23.190Z,23.2
2019-03-17T12:28:13.203Z,23.8
2019-03-17T12:29:03.016Z,24.3
2019-03-17T12:29:53.089Z,24.5
2019-03-17T12:30:42.590Z,24.9
2019-03-17T12:31:32.915Z,24.2
2019-03-17T12:32:22.998Z,24.4
2019-03-17T12:33:13.662Z,24.5
2019-03-17T12:34:03.589Z,23.9
2019-03-17T12:34:53.439Z,23.7
2019-03-17T12:35:43.796Z,23.7
2019-03-17T12:36:33.579Z,23.9
2019-03-17T12:37:23.352Z,23.9
2019-03-17T12:38:13.694Z,23.8
2019-03-17T12:39:04.034Z,24.1
2019-03-17T12:40:05.888Z,24.8
2019-03-17T12:40:43.310Z,24.8
2019-03-17T12:41:33.640Z,25.1
2019-03-17T12:42:23.727Z,24.8
2019-03-17T12:43:14.035Z,25.3
2019-03-17T12:44:04.107Z,24.8
2019-03-17T12:44:54.166Z,25.1
2019-03-17T12:45:43.949Z,25.1
2019-03-17T12:46:34.554Z,25.4
2019-03-17T12:47:24.062Z,25.8
2019-03-17T12:48:14.391Z,26.1
2019-03-17T12:49:04.193Z,26.3
2019-03-17T12:49:54.814Z,26.3
2019-03-17T12:50:44.592Z,26.1
2019-03-17T12:51:34.914Z,25.5
2019-03-17T12:52:24.706Z,25.6
2019-03-17T12:53:14.789Z,25.7
2019-03-17T12:54:04.905Z,26.2
2019-03-17T12:54:55.147Z,25.6
2019-03-17T12:55:45.216Z,25.4
2019-03-17T12:56:35.276Z,25
2019-03-17T12:57:25.069Z,24.3
2019-03-17T12:58:17.669Z,24.3
2019-03-17T12:59:04.934Z,24.8
2019-03-17T12:59:55.524Z,24.3
2019-03-17T13:00:45.026Z,24
2019-03-17T13:01:34.546Z,23.8
2019-03-17T13:02:24.873Z,23.9
2019-03-17T13:03:15.758Z,23.8
2019-03-17T13:04:05.874Z,23.6
2019-03-17T13:04:55.593Z,23.8
2019-03-17T13:05:45.958Z,24.1
2019-03-17T13:06:35.481Z,24.4
2019-03-17T13:07:26.051Z,25
2019-03-17T13:08:16.131Z,24.4
2019-03-17T13:09:05.650Z,24.5
2019-03-17T13:09:55.987Z,24.3
2019-03-17T13:10:46.378Z,23.9
2019-03-17T13:11:36.095Z,23.6
2019-03-17T13:12:26.453Z,24
2019-03-17T13:13:16.224Z,24.6
2019-03-17T13:14:09.125Z,24.8